createdAt,value
2023-05-21T00:00:20.799Z,16.75
2023-05-21T00:02:47.592Z,16.69
2023-05-21T00:05:15.485Z,16.71
2023-05-21T00:07:42.195Z,16.68
2023-05-21T00:10:09.121Z,16.74
2023-05-21T00:12:35.867Z,16.66
2023-05-21T00:15:02.500Z,16.67
2023-05-21T00:17:29.065Z,16.71
2023-05-21T00:19:56.834Z,16.69
2023-05-21T00:22:23.862Z,16.78
2023-05-21T00:24:50.750Z,16.76
2023-05-21T00:27:17.568Z,16.79
2023-05-21T00:29:44.592Z,16.77
2023-05-21T00:32:11.414Z,16.71
2023-05-21T00:34:38.252Z,16.65
2023-05-21T00:37:05.042Z,16.70
2023-05-21T00:39:31.668Z,16.74
2023-05-21T00:41:58.329Z,16.79
2023-05-21T00:44:25.473Z,16.72
2023-05-21T00:46:53.633Z,16.71
2023-05-21T00:49:24.277Z,16.75
2023-05-21T00:51:52.137Z,16.76
2023-05-21T00:54:18.944Z,16.68
2023-05-21T00:56:46.614Z,16.70
2023-05-21T00:59:15.910Z,16.66
2023-05-21T01:01:45.789Z,16.58
2023-05-21T01:04:12.706Z,16.63
2023-05-21T01:06:39.433Z,16.62
2023-05-21T01:09:07.103Z,16.51
2023-05-21T01:11:46.683Z,16.59
2023-05-21T01:14:15.019Z,16.63
2023-05-21T01:17:02.546Z,16.63
2023-05-21T01:19:50.206Z,16.63
2023-05-21T01:22:57.655Z,16.64
2023-05-21T01:25:44.747Z,16.60
2023-05-21T01:28:33.550Z,16.51
2023-05-21T01:31:28.228Z,16.55
2023-05-21T01:34:00.460Z,16.43
2023-05-21T01:36:34.621Z,16.48
2023-05-21T01:39:07.705Z,16.48
2023-05-21T01:41:38.593Z,16.47
2023-05-21T01:44:06.996Z,16.45
2023-05-21T01:46:36.280Z,16.45
2023-05-21T01:49:05.438Z,16.42
2023-05-21T01:51:33.083Z,16.41
2023-05-21T01:53:59.548Z,16.38
2023-05-21T01:56:28.578Z,16.41
2023-05-21T01:58:59.496Z,16.31
2023-05-21T02:01:30.497Z,16.29
2023-05-21T02:03:58.159Z,16.28
2023-05-21T02:06:25.441Z,16.21
2023-05-21T02:08:52.038Z,16.24
2023-05-21T02:11:18.507Z,16.20
2023-05-21T02:13:46.188Z,16.20
2023-05-21T02:16:14.785Z,16.22
2023-05-21T02:18:43.483Z,16.18
2023-05-21T02:21:11.498Z,16.18
2023-05-21T02:23:38.291Z,15.95
2023-05-21T02:26:05.098Z,16.02
2023-05-21T02:28:32.755Z,16.04
2023-05-21T02:30:59.626Z,15.98
2023-05-21T02:33:26.158Z,15.95
2023-05-21T02:35:52.776Z,15.96
2023-05-21T02:38:19.414Z,15.90
2023-05-21T02:40:46.489Z,15.92
2023-05-21T02:43:15.889Z,15.93
2023-05-21T02:45:43.751Z,15.81
2023-05-21T02:48:11.518Z,15.83
2023-05-21T02:50:41.032Z,15.74
2023-05-21T02:53:08.163Z,15.72
2023-05-21T02:55:36.052Z,15.71
2023-05-21T02:58:03.030Z,15.77
2023-05-21T03:00:29.564Z,15.69
2023-05-21T03:02:56.727Z,15.73
2023-05-21T03:05:23.373Z,15.67
2023-05-21T03:07:50.295Z,15.63
2023-05-21T03:10:17.133Z,15.66
2023-05-21T03:12:43.853Z,15.65
2023-05-21T03:15:14.829Z,15.62
2023-05-21T03:17:42.294Z,15.59
2023-05-21T03:20:15.961Z,15.38
2023-05-21T03:22:44.578Z,15.32
2023-05-21T03:25:12.645Z,15.40
2023-05-21T03:27:39.733Z,15.49
2023-05-21T03:30:13.507Z,15.42
2023-05-21T03:32:57.875Z,15.44
2023-05-21T03:35:24.453Z,15.45
2023-05-21T03:37:51.251Z,15.41
2023-05-21T03:40:18.062Z,15.44
2023-05-21T03:42:44.787Z,15.47
2023-05-21T03:45:11.809Z,15.37
2023-05-21T03:48:05.597Z,15.41
2023-05-21T03:50:32.521Z,15.33
2023-05-21T03:52:59.441Z,15.26
2023-05-21T03:55:26.274Z,15.31
2023-05-21T03:57:52.745Z,15.25
2023-05-21T04:00:19.327Z,15.16
2023-05-21T04:02:47.733Z,15.22
2023-05-21T04:05:16.703Z,15.25
2023-05-21T04:07:46.292Z,15.28
2023-05-21T04:10:13.170Z,15.28
2023-05-21T04:12:39.607Z,15.22
2023-05-21T04:15:07.012Z,15.26
2023-05-21T04:17:35.515Z,15.17
2023-05-21T04:20:02.058Z,15.17
2023-05-21T04:22:30.254Z,15.15
2023-05-21T04:24:56.880Z,15.18
2023-05-21T04:27:28.010Z,15.12
2023-05-21T04:29:54.794Z,14.98
2023-05-21T04:32:24.167Z,15.07
2023-05-21T04:34:51.072Z,14.96
2023-05-21T04:37:17.892Z,14.97
2023-05-21T04:39:45.605Z,14.92
2023-05-21T04:42:12.346Z,14.87
2023-05-21T04:44:40.308Z,14.91
2023-05-21T04:47:08.087Z,14.93
2023-05-21T04:49:36.216Z,14.94
2023-05-21T04:52:02.709Z,14.90
2023-05-21T04:54:29.405Z,14.90
2023-05-21T04:56:56.101Z,15.02
2023-05-21T04:59:22.785Z,15.02
2023-05-21T05:01:49.499Z,14.90
2023-05-21T05:04:16.178Z,15.00
2023-05-21T05:06:42.914Z,15.12
2023-05-21T05:09:09.691Z,15.20
2023-05-21T05:11:36.544Z,15.02
2023-05-21T05:14:03.855Z,15.06
2023-05-21T05:16:31.231Z,15.06
2023-05-21T05:18:58.064Z,15.06
2023-05-21T05:21:24.886Z,15.21
2023-05-21T05:23:51.563Z,15.25
2023-05-21T05:26:21.535Z,15.31
2023-05-21T05:28:49.443Z,15.18
2023-05-21T05:31:16.259Z,15.26
2023-05-21T05:33:43.763Z,15.40
2023-05-21T05:36:10.909Z,15.46
2023-05-21T05:38:37.770Z,15.43
2023-05-21T05:41:04.346Z,15.47
2023-05-21T05:43:31.282Z,15.51
2023-05-21T05:45:59.145Z,15.56
2023-05-21T05:48:25.862Z,15.54
2023-05-21T05:50:54.752Z,15.56
2023-05-21T05:53:25.308Z,15.48
2023-05-21T05:55:53.783Z,15.50
2023-05-21T05:58:20.426Z,15.54
2023-05-21T06:00:56.723Z,15.64
2023-05-21T06:03:24.499Z,15.74
2023-05-21T06:05:52.927Z,15.74
2023-05-21T06:08:19.479Z,15.64
2023-05-21T06:10:46.002Z,15.69
2023-05-21T06:13:13.021Z,15.66
2023-05-21T06:15:43.034Z,15.76
2023-05-21T06:18:09.720Z,15.85
2023-05-21T06:20:36.439Z,15.85
2023-05-21T06:23:02.994Z,15.86
2023-05-21T06:25:29.505Z,15.84
2023-05-21T06:27:56.963Z,15.88
2023-05-21T06:30:26.440Z,15.84
2023-05-21T06:32:53.448Z,15.96
2023-05-21T06:35:20.499Z,16.05
2023-05-21T06:37:48.793Z,16.06
2023-05-21T06:40:15.936Z,16.23
2023-05-21T06:42:42.965Z,16.25
2023-05-21T06:45:29.765Z,16.29
2023-05-21T06:48:00.714Z,16.34
2023-05-21T06:50:27.337Z,16.38
2023-05-21T06:52:53.939Z,16.65
2023-05-21T06:55:20.807Z,16.85
2023-05-21T06:58:05.422Z,16.92
2023-05-21T07:00:32.029Z,17.17
2023-05-21T07:02:58.660Z,17.15
2023-05-21T07:05:26.069Z,17.24
2023-05-21T07:07:54.263Z,17.39
2023-05-21T07:10:21.105Z,17.69
2023-05-21T07:12:47.810Z,17.78
2023-05-21T07:15:14.619Z,18.01
2023-05-21T07:17:41.471Z,18.04
2023-05-21T07:20:09.753Z,18.31
2023-05-21T07:22:39.202Z,18.30
2023-05-21T07:25:07.411Z,18.46
2023-05-21T07:27:34.209Z,18.63
2023-05-21T07:30:00.992Z,18.71
2023-05-21T07:32:30.492Z,18.68
2023-05-21T07:35:02.051Z,18.78
2023-05-21T07:37:30.858Z,18.96
2023-05-21T07:40:00.494Z,18.89
2023-05-21T07:42:27.257Z,19.24
2023-05-21T07:44:56.016Z,19.32
2023-05-21T07:47:23.928Z,19.39
2023-05-21T07:49:51.425Z,19.32
2023-05-21T07:52:18.002Z,19.37
2023-05-21T07:54:44.692Z,19.58
2023-05-21T07:57:11.344Z,19.64
2023-05-21T07:59:56.594Z,19.87
2023-05-21T08:02:23.714Z,19.62
2023-05-21T08:04:52.574Z,19.95
2023-05-21T08:07:21.428Z,20.21
2023-05-21T08:09:47.986Z,20.13
2023-05-21T08:12:15.915Z,20.35
2023-05-21T08:14:43.555Z,20.11
2023-05-21T08:17:12.004Z,20.44
2023-05-21T08:19:38.759Z,20.50
2023-05-21T08:22:08.927Z,20.62
2023-05-21T08:24:37.568Z,20.50
2023-05-21T08:27:04.495Z,20.70
2023-05-21T08:29:32.974Z,20.74
2023-05-21T08:31:59.563Z,20.74
2023-05-21T08:34:26.710Z,20.95
2023-05-21T08:37:05.125Z,21.19
2023-05-21T08:39:57.621Z,21.49
2023-05-21T08:42:48.553Z,21.64
2023-05-21T08:45:21.788Z,21.59
2023-05-21T08:47:56.005Z,21.75
2023-05-21T08:50:27.502Z,22.00
2023-05-21T08:52:57.511Z,21.80
2023-05-21T08:55:24.824Z,21.96
2023-05-21T08:57:54.261Z,22.32
2023-05-21T09:00:21.230Z,22.39
2023-05-21T09:02:47.920Z,22.09
2023-05-21T09:05:18.543Z,22.00
2023-05-21T09:08:06.748Z,22.56
2023-05-21T09:10:52.452Z,22.79
2023-05-21T09:13:25.206Z,22.72
2023-05-21T09:15:52.179Z,22.72
2023-05-21T09:18:20.342Z,23.11
2023-05-21T09:20:54.073Z,23.25
2023-05-21T09:23:20.871Z,23.13
2023-05-21T09:25:49.236Z,23.21
2023-05-21T09:28:24.920Z,23.12
2023-05-21T09:30:54.622Z,23.12
2023-05-21T09:33:31.356Z,23.63
2023-05-21T09:35:58.384Z,24.33
2023-05-21T09:38:26.983Z,24.08
2023-05-21T09:40:57.081Z,24.31
2023-05-21T09:43:25.176Z,24.82
2023-05-21T09:45:56.562Z,24.68
2023-05-21T09:48:41.945Z,25.35
2023-05-21T09:51:12.902Z,25.77
2023-05-21T09:53:58.224Z,25.80
2023-05-21T09:56:26.671Z,25.92
2023-05-21T09:58:58.011Z,26.33
2023-05-21T10:01:25.242Z,26.73
2023-05-21T10:03:57.119Z,26.75
2023-05-21T10:06:32.164Z,26.87
2023-05-21T10:09:04.716Z,26.61
2023-05-21T10:11:32.960Z,26.15
2023-05-21T10:14:14.774Z,25.79
2023-05-21T10:16:42.634Z,26.76
2023-05-21T10:19:12.255Z,26.90
2023-05-21T10:21:40.923Z,27.01
2023-05-21T10:24:10.829Z,26.60
2023-05-21T10:26:39.460Z,26.65
2023-05-21T10:29:07.801Z,26.79
2023-05-21T10:31:36.006Z,26.63
2023-05-21T10:34:03.705Z,27.64
2023-05-21T10:36:33.476Z,27.86
2023-05-21T10:39:01.947Z,27.85
2023-05-21T10:41:37.028Z,27.98
2023-05-21T10:44:06.586Z,27.87
2023-05-21T10:47:00.429Z,27.87
2023-05-21T10:49:54.775Z,27.74
2023-05-21T10:52:57.023Z,27.76
2023-05-21T10:55:41.181Z,27.53
2023-05-21T10:58:38.204Z,28.18
2023-05-21T11:01:06.928Z,28.59
2023-05-21T11:03:36.691Z,28.56
2023-05-21T11:06:08.393Z,28.28
2023-05-21T11:08:36.122Z,28.82
2023-05-21T11:11:04.073Z,28.99
2023-05-21T11:13:50.805Z,28.75
2023-05-21T11:16:18.300Z,28.85
2023-05-21T11:18:44.764Z,29.43
2023-05-21T11:21:15.953Z,29.16
2023-05-21T11:23:53.032Z,29.12
2023-05-21T11:26:27.322Z,29.60
2023-05-21T11:29:03.819Z,29.68
2023-05-21T11:31:39.833Z,29.41
2023-05-21T11:34:17.261Z,29.40
2023-05-21T11:36:46.754Z,30.05
2023-05-21T11:39:23.949Z,30.54
2023-05-21T11:42:04.417Z,30.48
2023-05-21T11:44:45.840Z,31.21
2023-05-21T11:47:15.114Z,30.98
2023-05-21T11:49:42.570Z,31.44
2023-05-21T11:52:10.564Z,30.45
2023-05-21T11:54:46.385Z,31.46
2023-05-21T11:57:17.637Z,32.02
2023-05-21T11:59:48.376Z,31.51
2023-05-21T12:02:16.832Z,32.02
2023-05-21T12:04:44.714Z,32.19
2023-05-21T12:07:15.219Z,32.50
2023-05-21T12:09:43.841Z,32.28
2023-05-21T12:12:13.185Z,33.08
2023-05-21T12:14:40.632Z,33.37
2023-05-21T12:17:07.777Z,33.14
2023-05-21T12:19:35.558Z,32.30
2023-05-21T12:22:06.581Z,31.46
2023-05-21T12:24:34.532Z,31.67
2023-05-21T12:27:03.209Z,32.10
2023-05-21T12:29:33.560Z,32.48
2023-05-21T12:32:01.282Z,32.17
2023-05-21T12:34:44.511Z,32.28
2023-05-21T12:37:20.798Z,31.62
2023-05-21T12:39:52.922Z,31.56
2023-05-21T12:42:27.397Z,32.60
2023-05-21T12:44:54.450Z,32.23
2023-05-21T12:47:24.311Z,32.16
2023-05-21T12:49:55.582Z,32.48
2023-05-21T12:52:22.423Z,32.16
2023-05-21T12:54:53.605Z,32.30
2023-05-21T12:57:25.466Z,32.35
2023-05-21T12:59:53.213Z,32.79
2023-05-21T13:02:40.146Z,32.89
2023-05-21T13:05:15.458Z,33.06
2023-05-21T13:07:43.864Z,32.48
2023-05-21T13:10:11.250Z,32.00
2023-05-21T13:12:37.793Z,32.68
2023-05-21T13:15:06.039Z,32.25
2023-05-21T13:17:32.764Z,32.16
2023-05-21T13:20:16.637Z,32.42
2023-05-21T13:22:49.263Z,32.83
2023-05-21T13:25:21.442Z,33.54
2023-05-21T13:27:49.697Z,33.53
2023-05-21T13:30:16.800Z,33.79
2023-05-21T13:32:43.941Z,33.42
2023-05-21T13:35:11.889Z,33.40
2023-05-21T13:37:40.172Z,34.29
2023-05-21T13:40:10.971Z,33.79
2023-05-21T13:42:38.483Z,34.28
2023-05-21T13:45:07.079Z,34.82
2023-05-21T13:47:33.766Z,34.60
2023-05-21T13:50:00.483Z,34.09
2023-05-21T13:52:27.213Z,34.38
2023-05-21T13:54:53.863Z,34.52
2023-05-21T13:57:21.093Z,33.99
2023-05-21T13:59:50.571Z,34.33
2023-05-21T14:02:17.102Z,33.87
2023-05-21T14:04:43.681Z,33.19
2023-05-21T14:07:11.327Z,33.12
2023-05-21T14:09:38.053Z,33.01
2023-05-21T14:12:06.605Z,33.17
2023-05-21T14:14:33.555Z,32.62
2023-05-21T14:17:00.373Z,32.68
2023-05-21T14:19:27.125Z,33.58
2023-05-21T14:21:53.834Z,33.82
2023-05-21T14:24:20.572Z,34.29
2023-05-21T14:26:47.136Z,35.00
2023-05-21T14:29:14.089Z,34.82
2023-05-21T14:31:40.631Z,35.54
2023-05-21T14:34:08.663Z,35.99
2023-05-21T14:36:36.308Z,36.15
2023-05-21T14:39:03.036Z,35.95
2023-05-21T14:41:29.952Z,35.16
2023-05-21T14:43:56.411Z,35.04
2023-05-21T14:46:23.067Z,34.91
2023-05-21T14:48:49.614Z,35.05
2023-05-21T14:51:16.242Z,35.24
2023-05-21T14:53:42.703Z,34.08
2023-05-21T14:56:09.357Z,34.18
2023-05-21T14:58:35.816Z,34.64
2023-05-21T15:01:04.070Z,34.84
2023-05-21T15:03:31.012Z,33.94
2023-05-21T15:05:58.505Z,32.23
2023-05-21T15:08:25.522Z,32.67
2023-05-21T15:10:52.165Z,32.94
2023-05-21T15:13:18.905Z,33.52
2023-05-21T15:15:45.562Z,33.66
2023-05-21T15:18:12.326Z,33.36
2023-05-21T15:20:39.010Z,33.55
2023-05-21T15:23:16.096Z,33.50
2023-05-21T15:25:43.778Z,32.53
2023-05-21T15:28:11.826Z,32.38
2023-05-21T15:30:38.452Z,33.25
2023-05-21T15:33:04.918Z,33.34
2023-05-21T15:35:31.636Z,33.23
2023-05-21T15:37:58.239Z,33.34
2023-05-21T15:40:26.925Z,33.41
2023-05-21T15:42:53.824Z,33.46
2023-05-21T15:45:20.378Z,32.86
2023-05-21T15:47:46.975Z,33.11
2023-05-21T15:50:13.501Z,33.24
2023-05-21T15:52:42.185Z,33.15
2023-05-21T15:55:09.253Z,33.02
2023-05-21T15:57:35.810Z,32.82
2023-05-21T16:00:02.325Z,33.25
2023-05-21T16:02:35.182Z,33.00
2023-05-21T16:05:01.935Z,32.84
2023-05-21T16:07:28.452Z,32.82
2023-05-21T16:09:55.102Z,32.87
2023-05-21T16:12:21.667Z,32.66
2023-05-21T16:14:52.025Z,32.66
2023-05-21T16:17:21.514Z,32.62
2023-05-21T16:19:48.077Z,32.58
2023-05-21T16:22:14.695Z,32.56
2023-05-21T16:24:41.187Z,32.61
2023-05-21T16:27:07.707Z,32.43
2023-05-21T16:29:34.163Z,32.58
2023-05-21T16:32:00.725Z,32.59
2023-05-21T16:34:27.373Z,32.50
2023-05-21T16:36:54.007Z,32.47
2023-05-21T16:39:20.577Z,32.68
2023-05-21T16:41:47.394Z,32.20
2023-05-21T16:44:14.504Z,32.41
2023-05-21T16:46:41.101Z,32.26
2023-05-21T16:49:07.587Z,31.90
2023-05-21T16:51:34.256Z,32.04
2023-05-21T16:54:02.281Z,31.79
2023-05-21T16:56:28.871Z,31.57
2023-05-21T16:58:55.353Z,31.16
2023-05-21T17:01:22.238Z,31.35
2023-05-21T17:03:48.988Z,31.19
2023-05-21T17:06:15.648Z,31.07
2023-05-21T17:08:42.740Z,30.77
2023-05-21T17:11:09.474Z,30.92
2023-05-21T17:13:35.964Z,30.75
2023-05-21T17:16:02.524Z,30.68
2023-05-21T17:18:29.190Z,30.89
2023-05-21T17:20:56.356Z,30.73
2023-05-21T17:23:22.984Z,30.74
2023-05-21T17:25:49.558Z,30.75
2023-05-21T17:28:16.063Z,30.51
2023-05-21T17:30:43.036Z,30.29
2023-05-21T17:33:10.519Z,30.18
2023-05-21T17:35:37.501Z,30.05
2023-05-21T17:38:04.327Z,29.93
2023-05-21T17:40:30.901Z,29.71
2023-05-21T17:42:57.603Z,29.74
2023-05-21T17:45:24.131Z,29.40
2023-05-21T17:47:50.824Z,29.45
2023-05-21T17:50:17.446Z,29.21
2023-05-21T17:52:43.936Z,28.98
2023-05-21T17:55:10.499Z,29.09
2023-05-21T17:57:36.960Z,28.97
2023-05-21T18:00:05.152Z,28.66
2023-05-21T18:02:38.546Z,28.65
2023-05-21T18:05:05.398Z,28.67
2023-05-21T18:07:32.240Z,28.45
2023-05-21T18:09:58.849Z,28.34
2023-05-21T18:12:25.565Z,28.02
2023-05-21T18:14:52.076Z,27.92
2023-05-21T18:17:18.806Z,27.62
2023-05-21T18:19:45.363Z,27.60
2023-05-21T18:22:11.880Z,27.49
2023-05-21T18:24:39.521Z,27.40
2023-05-21T18:27:06.168Z,27.49
2023-05-21T18:29:32.728Z,27.33
2023-05-21T18:31:59.599Z,27.16
2023-05-21T18:34:26.055Z,26.88
2023-05-21T18:36:54.498Z,26.68
2023-05-21T18:39:24.693Z,26.76
2023-05-21T18:41:55.801Z,26.40
2023-05-21T18:44:29.678Z,26.48
2023-05-21T18:46:57.662Z,26.33
2023-05-21T18:49:24.564Z,26.22
2023-05-21T18:51:51.168Z,26.09
2023-05-21T18:54:17.686Z,25.80
2023-05-21T18:56:44.261Z,25.79
2023-05-21T18:59:10.819Z,25.57
2023-05-21T19:01:37.410Z,25.51
2023-05-21T19:04:04.346Z,25.42
2023-05-21T19:06:31.235Z,25.12
2023-05-21T19:08:57.787Z,25.05
2023-05-21T19:11:27.450Z,25.08
2023-05-21T19:13:54.058Z,25.01
2023-05-21T19:16:20.865Z,24.88
2023-05-21T19:18:47.653Z,24.72
2023-05-21T19:21:14.133Z,24.49
2023-05-21T19:23:52.113Z,24.55
2023-05-21T19:26:21.143Z,24.35
2023-05-21T19:28:52.803Z,24.39
2023-05-21T19:31:20.037Z,24.13
2023-05-21T19:33:46.704Z,24.14
2023-05-21T19:36:13.248Z,23.96
2023-05-21T19:38:48.889Z,24.04
2023-05-21T19:41:16.421Z,23.84
2023-05-21T19:43:43.212Z,23.71
2023-05-21T19:46:10.125Z,23.48
2023-05-21T19:48:36.726Z,23.43
2023-05-21T19:51:03.463Z,23.29
2023-05-21T19:53:29.987Z,23.40
2023-05-21T19:55:56.603Z,23.21
2023-05-21T19:58:26.726Z,23.19
2023-05-21T20:00:55.673Z,23.12
2023-05-21T20:03:22.244Z,23.10
2023-05-21T20:05:48.792Z,23.04
2023-05-21T20:08:16.347Z,22.67
2023-05-21T20:10:42.869Z,22.50
2023-05-21T20:13:09.762Z,22.53
2023-05-21T20:15:36.480Z,22.55
2023-05-21T20:18:03.330Z,22.50
2023-05-21T20:20:29.950Z,22.36
2023-05-21T20:23:03.086Z,22.33
2023-05-21T20:25:30.257Z,22.05
2023-05-21T20:27:58.545Z,22.10
2023-05-21T20:30:31.588Z,21.85
2023-05-21T20:33:00.049Z,22.01
2023-05-21T20:35:27.618Z,21.83
2023-05-21T20:37:54.453Z,21.80
2023-05-21T20:40:21.011Z,21.77
2023-05-21T20:42:50.211Z,21.76
2023-05-21T20:45:16.897Z,21.72
2023-05-21T20:47:43.533Z,21.71
2023-05-21T20:50:12.016Z,21.75
2023-05-21T20:52:38.584Z,21.52
2023-05-21T20:55:05.724Z,21.37
2023-05-21T20:57:32.496Z,21.42
2023-05-21T20:59:59.209Z,21.21
2023-05-21T21:02:26.701Z,21.23
2023-05-21T21:04:53.731Z,21.16
2023-05-21T21:07:20.440Z,21.06
2023-05-21T21:09:48.194Z,21.06
2023-05-21T21:12:26.175Z,20.98
2023-05-21T21:14:53.915Z,21.01
2023-05-21T21:17:20.535Z,20.97
2023-05-21T21:19:47.246Z,20.94
2023-05-21T21:22:15.529Z,20.95
2023-05-21T21:24:42.130Z,20.93
2023-05-21T21:27:08.809Z,20.86
2023-05-21T21:29:35.380Z,20.78
2023-05-21T21:32:02.314Z,20.68
2023-05-21T21:34:28.848Z,20.67
2023-05-21T21:36:55.534Z,20.73
2023-05-21T21:39:22.218Z,20.64
2023-05-21T21:41:48.814Z,20.61
2023-05-21T21:44:15.645Z,20.50
2023-05-21T21:46:42.336Z,20.50
2023-05-21T21:49:08.861Z,20.30
2023-05-21T21:51:36.813Z,20.33
2023-05-21T21:54:03.471Z,20.25
2023-05-21T21:56:29.903Z,20.24
2023-05-21T21:58:56.693Z,20.23
2023-05-21T22:01:23.363Z,20.16
2023-05-21T22:03:50.098Z,20.22
2023-05-21T22:06:16.617Z,20.16
2023-05-21T22:08:43.364Z,20.10
2023-05-21T22:11:10.466Z,20.02
2023-05-21T22:13:37.600Z,20.04
2023-05-21T22:16:05.508Z,19.88
2023-05-21T22:18:41.436Z,19.92
2023-05-21T22:21:10.364Z,19.70
2023-05-21T22:23:38.506Z,19.66
2023-05-21T22:26:05.783Z,19.65
2023-05-21T22:28:32.748Z,19.64
2023-05-21T22:30:59.321Z,19.68
2023-05-21T22:33:26.828Z,19.59
2023-05-21T22:35:54.320Z,19.62
2023-05-21T22:38:21.346Z,19.53
2023-05-21T22:40:48.033Z,19.54
2023-05-21T22:43:14.628Z,19.58
2023-05-21T22:45:41.099Z,19.52
2023-05-21T22:48:09.227Z,19.41
2023-05-21T22:50:36.197Z,19.29
2023-05-21T22:53:02.971Z,19.13
2023-05-21T22:55:29.733Z,19.07
2023-05-21T22:57:56.431Z,19.01
2023-05-21T23:00:23.120Z,19.12
2023-05-21T23:02:52.202Z,18.97
2023-05-21T23:05:20.507Z,19.13
2023-05-21T23:07:47.251Z,18.96
2023-05-21T23:10:13.844Z,18.88
2023-05-21T23:12:40.863Z,18.77
2023-05-21T23:15:09.472Z,18.63
2023-05-21T23:17:36.358Z,18.78
2023-05-21T23:20:03.436Z,18.75
2023-05-21T23:22:29.995Z,18.81
2023-05-21T23:24:56.564Z,18.64
2023-05-21T23:27:23.139Z,18.71
2023-05-21T23:29:49.648Z,18.62
2023-05-21T23:32:16.387Z,18.63
2023-05-21T23:34:42.976Z,18.58
2023-05-21T23:37:09.646Z,18.63
2023-05-21T23:39:36.611Z,18.34
2023-05-21T23:42:03.524Z,18.37
2023-05-21T23:44:30.208Z,18.34
2023-05-21T23:46:56.826Z,18.23
2023-05-21T23:49:23.544Z,18.28
2023-05-21T23:51:50.880Z,18.35
2023-05-21T23:54:17.772Z,18.33
2023-05-21T23:56:44.502Z,18.38
2023-05-21T23:59:11.008Z,18.25
